sensor_id;sensor_type;location;lat;lon;timestamp;P1;durP1;ratioP1;P2;durP2;ratioP2
50363;SDS011;36272;59.400;17.982;2022-12-07T00:04:28;12.18;;;4.45;;
50363;SDS011;36272;59.400;17.982;2022-12-07T00:09:29;10.50;;;4.32;;
50363;SDS011;36272;59.400;17.982;2022-12-07T00:14:31;10.00;;;4.07;;
50363;SDS011;36272;59.400;17.982;2022-12-07T00:19:33;9.80;;;3.92;;
50363;SDS011;36272;59.400;17.982;2022-12-07T00:24:35;10.07;;;3.83;;
50363;SDS011;36272;59.400;17.982;2022-12-07T00:29:36;9.77;;;3.70;;
50363;SDS011;36272;59.400;17.982;2022-12-07T00:34:38;12.38;;;3.60;;
50363;SDS011;36272;59.400;17.982;2022-12-07T00:39:40;13.13;;;3.58;;
50363;SDS011;36272;59.400;17.982;2022-12-07T00:44:41;11.30;;;3.45;;
50363;SDS011;36272;59.400;17.982;2022-12-07T00:49:43;10.90;;;4.10;;
50363;SDS011;36272;59.400;17.982;2022-12-07T00:54:44;14.07;;;3.72;;
50363;SDS011;36272;59.400;17.982;2022-12-07T00:59:48;13.32;;;3.40;;
50363;SDS011;36272;59.400;17.982;2022-12-07T01:04:50;11.65;;;3.47;;
50363;SDS011;36272;59.400;17.982;2022-12-07T01:09:51;13.95;;;4.03;;
50363;SDS011;36272;59.400;17.982;2022-12-07T01:14:53;17.02;;;3.97;;
50363;SDS011;36272;59.400;17.982;2022-12-07T01:19:55;13.32;;;3.45;;
50363;SDS011;36272;59.400;17.982;2022-12-07T01:24:56;7.28;;;3.20;;
50363;SDS011;36272;59.400;17.982;2022-12-07T01:29:58;11.18;;;3.53;;
50363;SDS011;36272;59.400;17.982;2022-12-07T01:34:59;11.90;;;3.50;;
50363;SDS011;36272;59.400;17.982;2022-12-07T01:40:02;11.85;;;3.58;;
50363;SDS011;36272;59.400;17.982;2022-12-07T01:50:42;10.30;;;3.47;;
50363;SDS011;36272;59.400;17.982;2022-12-07T01:55:47;12.25;;;3.53;;
50363;SDS011;36272;59.400;17.982;2022-12-07T02:00:53;15.15;;;3.22;;
50363;SDS011;36272;59.400;17.982;2022-12-07T02:05:54;9.05;;;3.40;;
50363;SDS011;36272;59.400;17.982;2022-12-07T02:10:57;8.43;;;3.17;;
50363;SDS011;36272;59.400;17.982;2022-12-07T02:16:16;12.55;;;3.33;;
50363;SDS011;36272;59.400;17.982;2022-12-07T02:32:13;10.13;;;3.10;;
50363;SDS011;36272;59.400;17.982;2022-12-07T02:42:51;13.13;;;4.50;;
50363;SDS011;36272;59.400;17.982;2022-12-07T02:48:13;12.23;;;3.10;;
50363;SDS011;36272;59.400;17.982;2022-12-07T03:04:09;10.27;;;3.67;;
50363;SDS011;36272;59.400;17.982;2022-12-07T03:09:37;8.50;;;3.45;;
50363;SDS011;36272;59.400;17.982;2022-12-07T03:14:45;11.95;;;3.67;;
50363;SDS011;36272;59.400;17.982;2022-12-07T03:19:51;6.60;;;3.30;;
50363;SDS011;36272;59.400;17.982;2022-12-07T03:24:58;13.30;;;3.70;;
50363;SDS011;36272;59.400;17.982;2022-12-07T03:30:09;14.02;;;3.97;;
50363;SDS011;36272;59.400;17.982;2022-12-07T03:35:26;9.88;;;3.35;;
50363;SDS011;36272;59.400;17.982;2022-12-07T03:45:41;14.35;;;3.65;;
50363;SDS011;36272;59.400;17.982;2022-12-07T03:55:52;11.18;;;3.28;;
50363;SDS011;36272;59.400;17.982;2022-12-07T04:00:58;8.50;;;3.10;;
50363;SDS011;36272;59.400;17.982;2022-12-07T04:06:03;8.13;;;2.97;;
50363;SDS011;36272;59.400;17.982;2022-12-07T04:11:04;9.67;;;2.93;;
50363;SDS011;36272;59.400;17.982;2022-12-07T04:16:06;14.68;;;3.60;;
50363;SDS011;36272;59.400;17.982;2022-12-07T04:21:08;7.03;;;3.30;;
50363;SDS011;36272;59.400;17.982;2022-12-07T04:26:09;9.85;;;3.05;;
50363;SDS011;36272;59.400;17.982;2022-12-07T04:31:13;7.18;;;3.10;;
50363;SDS011;36272;59.400;17.982;2022-12-07T04:36:15;10.10;;;3.47;;
50363;SDS011;36272;59.400;17.982;2022-12-07T04:41:17;14.68;;;3.53;;
50363;SDS011;36272;59.400;17.982;2022-12-07T04:46:18;11.60;;;2.90;;
50363;SDS011;36272;59.400;17.982;2022-12-07T04:51:22;6.68;;;2.95;;
50363;SDS011;36272;59.400;17.982;2022-12-07T04:56:48;7.63;;;2.65;;
50363;SDS011;36272;59.400;17.982;2022-12-07T05:01:49;10.63;;;3.30;;
50363;SDS011;36272;59.400;17.982;2022-12-07T05:06:51;12.13;;;2.83;;
50363;SDS011;36272;59.400;17.982;2022-12-07T05:11:53;7.68;;;2.80;;
50363;SDS011;36272;59.400;17.982;2022-12-07T05:16:54;10.57;;;2.78;;
50363;SDS011;36272;59.400;17.982;2022-12-07T05:21:56;8.70;;;2.65;;
50363;SDS011;36272;59.400;17.982;2022-12-07T05:27:01;9.00;;;3.03;;
50363;SDS011;36272;59.400;17.982;2022-12-07T05:32:11;8.65;;;2.50;;
50363;SDS011;36272;59.400;17.982;2022-12-07T05:37:13;11.98;;;3.08;;
50363;SDS011;36272;59.400;17.982;2022-12-07T05:42:15;6.20;;;3.03;;
50363;SDS011;36272;59.400;17.982;2022-12-07T05:47:19;6.03;;;2.47;;
50363;SDS011;36272;59.400;17.982;2022-12-07T05:52:21;9.20;;;2.75;;
50363;SDS011;36272;59.400;17.982;2022-12-07T05:57:23;8.35;;;2.85;;
50363;SDS011;36272;59.400;17.982;2022-12-07T06:02:31;4.55;;;2.60;;
50363;SDS011;36272;59.400;17.982;2022-12-07T06:07:33;11.73;;;2.83;;
50363;SDS011;36272;59.400;17.982;2022-12-07T06:12:34;10.23;;;2.85;;
50363;SDS011;36272;59.400;17.982;2022-12-07T06:17:36;9.43;;;2.40;;
50363;SDS011;36272;59.400;17.982;2022-12-07T06:22:42;12.77;;;3.03;;
50363;SDS011;36272;59.400;17.982;2022-12-07T06:27:46;7.60;;;2.30;;
50363;SDS011;36272;59.400;17.982;2022-12-07T06:38:44;9.70;;;2.50;;
50363;SDS011;36272;59.400;17.982;2022-12-07T06:43:45;11.50;;;2.58;;
50363;SDS011;36272;59.400;17.982;2022-12-07T06:48:47;4.32;;;2.38;;
50363;SDS011;36272;59.400;17.982;2022-12-07T06:53:49;7.85;;;2.65;;
50363;SDS011;36272;59.400;17.982;2022-12-07T06:58:51;7.90;;;2.50;;
50363;SDS011;36272;59.400;17.982;2022-12-07T07:03:52;6.78;;;2.60;;
50363;SDS011;36272;59.400;17.982;2022-12-07T07:08:54;12.60;;;3.08;;
50363;SDS011;36272;59.400;17.982;2022-12-07T07:13:59;8.38;;;3.00;;
50363;SDS011;36272;59.400;17.982;2022-12-07T07:19:03;8.48;;;3.08;;
50363;SDS011;36272;59.400;17.982;2022-12-07T07:24:08;4.35;;;2.17;;
50363;SDS011;36272;59.400;17.982;2022-12-07T07:29:10;6.90;;;2.67;;
50363;SDS011;36272;59.400;17.982;2022-12-07T07:34:29;10.90;;;3.08;;
50363;SDS011;36272;59.400;17.982;2022-12-07T07:39:46;12.88;;;3.00;;
50363;SDS011;36272;59.400;17.982;2022-12-07T07:51:42;9.40;;;3.03;;
50363;SDS011;36272;59.400;17.982;2022-12-07T07:57:35;7.55;;;2.70;;
50363;SDS011;36272;59.400;17.982;2022-12-07T08:02:43;8.48;;;2.53;;
50363;SDS011;36272;59.400;17.982;2022-12-07T08:07:48;9.80;;;2.92;;
50363;SDS011;36272;59.400;17.982;2022-12-07T08:12:54;8.63;;;2.67;;
50363;SDS011;36272;59.400;17.982;2022-12-07T08:18:17;8.82;;;2.35;;
50363;SDS011;36272;59.400;17.982;2022-12-07T08:23:30;11.15;;;2.40;;
50363;SDS011;36272;59.400;17.982;2022-12-07T09:01:58;10.23;;;2.40;;
50363;SDS011;36272;59.400;17.982;2022-12-07T09:27:07;8.65;;;2.22;;
50363;SDS011;36272;59.400;17.982;2022-12-07T09:46:27;10.45;;;2.80;;
50363;SDS011;36272;59.400;17.982;2022-12-07T10:10:34;6.35;;;2.55;;
50363;SDS011;36272;59.400;17.982;2022-12-07T11:24:29;9.50;;;2.65;;
50363;SDS011;36272;59.400;17.982;2022-12-07T11:41:42;12.07;;;3.00;;
50363;SDS011;36272;59.400;17.982;2022-12-07T11:53:17;7.65;;;2.72;;
50363;SDS011;36272;59.400;17.982;2022-12-07T12:03:34;9.57;;;2.20;;
50363;SDS011;36272;59.400;17.982;2022-12-07T12:09:16;8.55;;;2.40;;
50363;SDS011;36272;59.400;17.982;2022-12-07T12:20:51;10.45;;;2.92;;
50363;SDS011;36272;59.400;17.982;2022-12-07T12:26:08;10.27;;;2.60;;
50363;SDS011;36272;59.400;17.982;2022-12-07T13:09:36;8.18;;;2.65;;
50363;SDS011;36272;59.400;17.982;2022-12-07T13:15:31;13.82;;;2.60;;
50363;SDS011;36272;59.400;17.982;2022-12-07T13:52:48;15.70;;;3.10;;
50363;SDS011;36272;59.400;17.982;2022-12-07T14:45:44;13.05;;;4.20;;
50363;SDS011;36272;59.400;17.982;2022-12-07T14:51:11;9.93;;;3.70;;
50363;SDS011;36272;59.400;17.982;2022-12-07T15:01:55;16.73;;;3.72;;
50363;SDS011;36272;59.400;17.982;2022-12-07T15:07:08;9.88;;;3.63;;
50363;SDS011;36272;59.400;17.982;2022-12-07T15:19:21;11.57;;;3.40;;
50363;SDS011;36272;59.400;17.982;2022-12-07T15:24:57;14.43;;;3.38;;
50363;SDS011;36272;59.400;17.982;2022-12-07T15:35:58;16.70;;;4.00;;
50363;SDS011;36272;59.400;17.982;2022-12-07T15:41:23;11.13;;;3.78;;
50363;SDS011;36272;59.400;17.982;2022-12-07T15:46:35;14.00;;;4.28;;
50363;SDS011;36272;59.400;17.982;2022-12-07T15:51:44;15.02;;;4.00;;
50363;SDS011;36272;59.400;17.982;2022-12-07T15:57:47;11.40;;;3.83;;
50363;SDS011;36272;59.400;17.982;2022-12-07T16:03:35;12.40;;;3.30;;
50363;SDS011;36272;59.400;17.982;2022-12-07T16:08:46;9.73;;;3.28;;
50363;SDS011;36272;59.400;17.982;2022-12-07T16:14:46;12.15;;;3.88;;
50363;SDS011;36272;59.400;17.982;2022-12-07T16:19:49;12.32;;;3.55;;
50363;SDS011;36272;59.400;17.982;2022-12-07T16:24:54;11.85;;;4.32;;
50363;SDS011;36272;59.400;17.982;2022-12-07T16:29:56;18.35;;;4.90;;
50363;SDS011;36272;59.400;17.982;2022-12-07T16:35:21;14.05;;;4.22;;
50363;SDS011;36272;59.400;17.982;2022-12-07T16:40:57;14.07;;;4.32;;
50363;SDS011;36272;59.400;17.982;2022-12-07T16:51:12;13.25;;;3.88;;
50363;SDS011;36272;59.400;17.982;2022-12-07T16:56:15;12.13;;;4.57;;
50363;SDS011;36272;59.400;17.982;2022-12-07T17:01:41;14.45;;;4.22;;
50363;SDS011;36272;59.400;17.982;2022-12-07T17:06:48;14.05;;;4.25;;
50363;SDS011;36272;59.400;17.982;2022-12-07T17:11:50;17.30;;;4.55;;
50363;SDS011;36272;59.400;17.982;2022-12-07T17:16:53;17.35;;;4.78;;
50363;SDS011;36272;59.400;17.982;2022-12-07T17:21:57;13.43;;;4.95;;
50363;SDS011;36272;59.400;17.982;2022-12-07T17:26:58;15.52;;;4.57;;
50363;SDS011;36272;59.400;17.982;2022-12-07T17:32:00;10.25;;;4.22;;
50363;SDS011;36272;59.400;17.982;2022-12-07T17:37:05;13.45;;;4.20;;
50363;SDS011;36272;59.400;17.982;2022-12-07T17:47:19;14.25;;;4.53;;
50363;SDS011;36272;59.400;17.982;2022-12-07T17:52:29;13.05;;;4.45;;
50363;SDS011;36272;59.400;17.982;2022-12-07T17:57:50;14.70;;;4.85;;
50363;SDS011;36272;59.400;17.982;2022-12-07T18:02:52;12.63;;;5.28;;
50363;SDS011;36272;59.400;17.982;2022-12-07T18:07:53;15.13;;;5.15;;
50363;SDS011;36272;59.400;17.982;2022-12-07T18:12:55;14.50;;;4.70;;
50363;SDS011;36272;59.400;17.982;2022-12-07T18:18:17;20.02;;;5.30;;
50363;SDS011;36272;59.400;17.982;2022-12-07T18:28:36;19.45;;;5.40;;
50363;SDS011;36272;59.400;17.982;2022-12-07T18:33:46;21.38;;;5.93;;
50363;SDS011;36272;59.400;17.982;2022-12-07T18:38:48;18.58;;;6.22;;
50363;SDS011;36272;59.400;17.982;2022-12-07T18:43:50;10.73;;;4.90;;
50363;SDS011;36272;59.400;17.982;2022-12-07T18:48:54;15.20;;;5.40;;
50363;SDS011;36272;59.400;17.982;2022-12-07T18:53:57;12.30;;;4.80;;
50363;SDS011;36272;59.400;17.982;2022-12-07T18:59:00;14.07;;;4.30;;
50363;SDS011;36272;59.400;17.982;2022-12-07T19:04:22;16.02;;;4.50;;
50363;SDS011;36272;59.400;17.982;2022-12-07T19:09:28;10.15;;;4.10;;
50363;SDS011;36272;59.400;17.982;2022-12-07T19:14:33;13.43;;;4.25;;
50363;SDS011;36272;59.400;17.982;2022-12-07T19:19:38;12.00;;;4.10;;
50363;SDS011;36272;59.400;17.982;2022-12-07T19:24:44;14.30;;;4.22;;
50363;SDS011;36272;59.400;17.982;2022-12-07T19:29:51;14.87;;;3.97;;
50363;SDS011;36272;59.400;17.982;2022-12-07T19:34:53;7.53;;;3.63;;
50363;SDS011;36272;59.400;17.982;2022-12-07T19:39:56;10.95;;;3.83;;
50363;SDS011;36272;59.400;17.982;2022-12-07T19:45:03;8.20;;;3.40;;
50363;SDS011;36272;59.400;17.982;2022-12-07T19:50:05;12.02;;;4.00;;
50363;SDS011;36272;59.400;17.982;2022-12-07T19:55:10;9.02;;;4.10;;
50363;SDS011;36272;59.400;17.982;2022-12-07T20:11:50;10.70;;;4.53;;
50363;SDS011;36272;59.400;17.982;2022-12-07T20:17:10;7.85;;;3.58;;
50363;SDS011;36272;59.400;17.982;2022-12-07T20:22:12;9.10;;;3.70;;
50363;SDS011;36272;59.400;17.982;2022-12-07T20:27:16;11.93;;;3.33;;
50363;SDS011;36272;59.400;17.982;2022-12-07T20:32:18;10.43;;;3.88;;
50363;SDS011;36272;59.400;17.982;2022-12-07T20:37:22;12.23;;;3.33;;
50363;SDS011;36272;59.400;17.982;2022-12-07T20:42:24;8.07;;;3.17;;
50363;SDS011;36272;59.400;17.982;2022-12-07T20:47:37;9.95;;;3.50;;
50363;SDS011;36272;59.400;17.982;2022-12-07T20:52:41;9.88;;;3.10;;
50363;SDS011;36272;59.400;17.982;2022-12-07T20:57:43;8.60;;;3.00;;
50363;SDS011;36272;59.400;17.982;2022-12-07T21:02:45;6.22;;;2.80;;
50363;SDS011;36272;59.400;17.982;2022-12-07T21:08:08;7.15;;;2.67;;
50363;SDS011;36272;59.400;17.982;2022-12-07T21:13:40;13.93;;;3.05;;
50363;SDS011;36272;59.400;17.982;2022-12-07T21:18:42;6.10;;;2.63;;
50363;SDS011;36272;59.400;17.982;2022-12-07T21:23:49;6.35;;;2.80;;
50363;SDS011;36272;59.400;17.982;2022-12-07T21:34:02;7.25;;;2.95;;
50363;SDS011;36272;59.400;17.982;2022-12-07T21:39:04;5.13;;;2.45;;
50363;SDS011;36272;59.400;17.982;2022-12-07T21:44:06;7.53;;;2.83;;
50363;SDS011;36272;59.400;17.982;2022-12-07T21:49:11;6.78;;;2.75;;
50363;SDS011;36272;59.400;17.982;2022-12-07T21:54:14;13.77;;;2.45;;
50363;SDS011;36272;59.400;17.982;2022-12-07T21:59:16;6.97;;;2.75;;
50363;SDS011;36272;59.400;17.982;2022-12-07T22:04:19;9.43;;;2.92;;
50363;SDS011;36272;59.400;17.982;2022-12-07T22:09:25;5.38;;;2.55;;
50363;SDS011;36272;59.400;17.982;2022-12-07T22:14:30;8.20;;;2.97;;
50363;SDS011;36272;59.400;17.982;2022-12-07T22:19:50;8.07;;;2.90;;
50363;SDS011;36272;59.400;17.982;2022-12-07T22:25:02;10.13;;;2.30;;
50363;SDS011;36272;59.400;17.982;2022-12-07T22:30:04;9.00;;;2.80;;
50363;SDS011;36272;59.400;17.982;2022-12-07T22:35:11;7.47;;;2.50;;
50363;SDS011;36272;59.400;17.982;2022-12-07T22:40:12;9.65;;;2.53;;
50363;SDS011;36272;59.400;17.982;2022-12-07T22:45:14;5.78;;;2.25;;
50363;SDS011;36272;59.400;17.982;2022-12-07T22:50:18;6.75;;;2.08;;
50363;SDS011;36272;59.400;17.982;2022-12-07T22:55:20;8.00;;;1.98;;
50363;SDS011;36272;59.400;17.982;2022-12-07T23:00:21;10.00;;;2.53;;
50363;SDS011;36272;59.400;17.982;2022-12-07T23:05:23;5.93;;;2.20;;
50363;SDS011;36272;59.400;17.982;2022-12-07T23:10:25;4.93;;;2.05;;
50363;SDS011;36272;59.400;17.982;2022-12-07T23:15:27;4.45;;;1.80;;
50363;SDS011;36272;59.400;17.982;2022-12-07T23:20:28;4.57;;;2.03;;
50363;SDS011;36272;59.400;17.982;2022-12-07T23:25:31;3.47;;;1.90;;
50363;SDS011;36272;59.400;17.982;2022-12-07T23:30:33;7.07;;;2.38;;
50363;SDS011;36272;59.400;17.982;2022-12-07T23:35:34;5.07;;;1.88;;
50363;SDS011;36272;59.400;17.982;2022-12-07T23:40:39;6.03;;;1.70;;
50363;SDS011;36272;59.400;17.982;2022-12-07T23:45:43;8.95;;;1.98;;
50363;SDS011;36272;59.400;17.982;2022-12-07T23:50:47;4.75;;;1.88;;
50363;SDS011;36272;59.400;17.982;2022-12-07T23:55:50;8.30;;;1.98;;
